Time;durP1;ratioP1;P1;durP2;ratioP2;P2;SDS_P1;SDS_P2;PMS_P1;PMS_P2;Temp;Humidity;BMP_temperature;BMP_pressure;BME280_temperature;BME280_humidity;BME280_pressure;Samples;Min_cycle;Max_cycle;Signal;HPM_P1;HPM_P2
2022/06/27 00:00:41;;;;;;;;;;;16.10;99.90;;;;;;5099101;27;19912;-65
2022/06/27 00:03:06;;;;;;;;;;;16.10;99.90;;;;;;5121519;27;19908;-65
2022/06/27 00:05:32;;;;;;;;;;;16.10;99.90;;;;;;5100831;27;20003;-65
2022/06/27 00:07:57;;;;;;;;;;;16.10;99.90;;;;;;5115688;27;20373;-65
2022/06/27 00:10:23;;;;;;;;;;;16.10;99.90;;;;;;5096658;28;19915;-65
2022/06/27 00:12:48;;;;;;;;;;;16.10;99.90;;;;;;5120842;27;19908;-65
2022/06/27 00:15:14;;;;;;;;;;;16.20;99.90;;;;;;5123684;27;20424;-65
2022/06/27 00:17:39;;;;;;;;;;;16.20;99.90;;;;;;5118502;27;20386;-65
2022/06/27 00:20:05;;;;;;;;;;;16.20;99.90;;;;;;5092473;27;19944;-65
2022/06/27 00:22:31;;;;;;;;;;;16.30;99.90;;;;;;5119974;27;19929;-65
2022/06/27 00:24:56;;;;;;;;;;;16.20;99.90;;;;;;5119280;27;19908;-65
2022/06/27 00:27:22;;;;;;;;;;;16.30;99.90;;;;;;5116810;27;20271;-65
2022/06/27 00:29:47;;;;;;;;;;;16.30;99.90;;;;;;5120111;27;20359;-65
2022/06/27 00:32:13;;;;;;;;;;;16.40;99.90;;;;;;5122980;27;19911;-65
2022/06/27 00:34:38;;;;;;;;;;;16.60;99.90;;;;;;5116837;27;20389;-65
2022/06/27 00:37:04;;;;;;;;;;;16.40;99.90;;;;;;5116242;27;19911;-65
2022/06/27 00:39:29;;;;;;;;;;;16.50;99.90;;;;;;5098507;27;19943;-65
2022/06/27 00:41:55;;;;;;;;;;;16.30;99.90;;;;;;5120248;27;20298;-65
2022/06/27 00:44:30;;;;;;;;;;;16.20;99.90;;;;;;5110038;27;20291;-65
2022/06/27 00:46:56;;;;;;;;;;;16.30;99.90;;;;;;5118140;27;20339;-65
2022/06/27 00:49:21;;;;;;;;;;;16.20;99.90;;;;;;5123052;27;20010;-65
2022/06/27 00:51:47;;;;;;;;;;;16.10;99.90;;;;;;5122482;27;19957;-65
2022/06/27 00:54:12;;;;;;;;;;;16.10;99.90;;;;;;5121484;27;19911;-65
2022/06/27 00:56:38;;;;;;;;;;;16.20;99.90;;;;;;5122234;27;20518;-65
2022/06/27 00:59:03;;;;;;;;;;;16.30;99.90;;;;;;5121045;27;20375;-64
2022/06/27 01:01:29;;;;;;;;;;;16.50;99.90;;;;;;5119417;27;20366;-64
2022/06/27 01:04:00;;;;;;;;;;;16.40;99.90;;;;;;5118885;27;19924;-64
2022/06/27 01:06:28;;;;;;;;;;;16.60;99.90;;;;;;5113862;27;19911;-64
2022/06/27 01:08:54;;;;;;;;;;;16.60;99.90;;;;;;5107443;27;19926;-64
2022/06/27 01:11:20;;;;;;;;;;;16.50;99.90;;;;;;5097751;28;19912;-64
2022/06/27 01:13:45;;;;;;;;;;;16.30;99.90;;;;;;5120856;27;19915;-64
2022/06/27 01:16:11;;;;;;;;;;;16.20;99.90;;;;;;5117982;27;19994;-64
2022/06/27 01:18:36;;;;;;;;;;;16.20;99.90;;;;;;5119648;27;19932;-64
2022/06/27 01:21:02;;;;;;;;;;;16.10;99.90;;;;;;5119716;27;19912;-64
2022/06/27 01:23:28;;;;;;;;;;;16.20;99.90;;;;;;5122005;27;19922;-64
2022/06/27 01:25:54;;;;;;;;;;;16.10;99.90;;;;;;5118324;27;19908;-64
2022/06/27 01:28:20;;;;;;;;;;;16.10;99.90;;;;;;5121160;27;19912;-64
2022/06/27 01:30:47;;;;;;;;;;;16.10;99.90;;;;;;5121322;27;19912;-64
2022/06/27 01:33:12;;;;;;;;;;;16.10;99.90;;;;;;5118137;28;19908;-65
2022/06/27 01:35:38;;;;;;;;;;;16.00;99.90;;;;;;5098386;28;19919;-65
2022/06/27 01:38:04;;;;;;;;;;;16.10;99.90;;;;;;5115645;28;19908;-64
2022/06/27 01:40:29;;;;;;;;;;;16.00;99.90;;;;;;5120696;28;20447;-64
2022/06/27 01:42:55;;;;;;;;;;;16.10;99.90;;;;;;5120721;28;19934;-64
2022/06/27 01:45:21;;;;;;;;;;;16.20;99.90;;;;;;5112770;28;19912;-65
2022/06/27 01:47:46;;;;;;;;;;;16.20;99.90;;;;;;5112885;28;20014;-65
2022/06/27 01:50:13;;;;;;;;;;;16.20;99.90;;;;;;5121671;28;19962;-65
2022/06/27 01:52:40;;;;;;;;;;;16.10;99.90;;;;;;5097743;28;19999;-65
2022/06/27 01:55:07;;;;;;;;;;;16.00;99.90;;;;;;5117776;27;20300;-65
2022/06/27 01:57:32;;;;;;;;;;;16.00;99.90;;;;;;5124095;27;19915;-64
2022/06/27 01:59:58;;;;;;;;;;;15.90;99.90;;;;;;5121909;27;19908;-64
2022/06/27 02:02:23;;;;;;;;;;;15.90;99.90;;;;;;5108192;27;19918;-64
2022/06/27 02:04:49;;;;;;;;;;;15.90;99.90;;;;;;5097304;28;19916;-64
2022/06/27 02:07:16;;;;;;;;;;;15.90;99.90;;;;;;5107470;27;19912;-64
2022/06/27 02:09:42;;;;;;;;;;;16.00;99.90;;;;;;5117390;27;20020;-64
2022/06/27 02:12:19;;;;;;;;;;;16.20;99.90;;;;;;5122990;27;19951;-64
2022/06/27 02:14:48;;;;;;;;;;;16.20;99.90;;;;;;5125563;27;19922;-64
2022/06/27 02:17:15;;;;;;;;;;;16.30;99.90;;;;;;5100991;27;20348;-64
2022/06/27 02:19:40;;;;;;;;;;;16.40;99.90;;;;;;5122389;27;20007;-64
2022/06/27 02:22:06;;;;;;;;;;;16.40;99.90;;;;;;5124125;27;19956;-64
2022/06/27 02:24:32;;;;;;;;;;;16.50;99.90;;;;;;5125555;27;19976;-64
2022/06/27 02:26:57;;;;;;;;;;;16.50;99.90;;;;;;5098849;28;20432;-64
2022/06/27 02:29:23;;;;;;;;;;;16.50;99.90;;;;;;5101924;27;20259;-64
2022/06/27 02:31:49;;;;;;;;;;;16.50;99.90;;;;;;5124182;27;19907;-64
2022/06/27 02:34:15;;;;;;;;;;;16.50;99.90;;;;;;5121841;27;19935;-64
2022/06/27 02:36:41;;;;;;;;;;;16.40;99.90;;;;;;5117962;27;19911;-64
2022/06/27 02:39:07;;;;;;;;;;;16.40;99.90;;;;;;5121416;27;20362;-64
2022/06/27 02:41:34;;;;;;;;;;;16.30;99.90;;;;;;5100826;27;19908;-64
2022/06/27 02:44:01;;;;;;;;;;;16.20;99.90;;;;;;5124456;27;19907;-64
2022/06/27 02:46:27;;;;;;;;;;;16.30;99.90;;;;;;5098871;28;19921;-64
2022/06/27 02:48:53;;;;;;;;;;;16.20;99.90;;;;;;5117920;27;19981;-64
2022/06/27 02:51:21;;;;;;;;;;;16.20;99.90;;;;;;5121971;27;19951;-64
2022/06/27 02:53:52;;;;;;;;;;;16.20;99.90;;;;;;5117765;27;19919;-64
2022/06/27 02:56:22;;;;;;;;;;;16.20;99.90;;;;;;5099096;28;19915;-64
2022/06/27 02:58:47;;;;;;;;;;;16.20;99.90;;;;;;5123298;27;20009;-64
2022/06/27 03:01:13;;;;;;;;;;;16.20;99.90;;;;;;5120034;27;19911;-64
2022/06/27 03:03:40;;;;;;;;;;;16.20;99.90;;;;;;5122234;27;20002;-64
2022/06/27 03:06:10;;;;;;;;;;;16.10;99.90;;;;;;5120460;27;19927;-64
2022/06/27 03:08:37;;;;;;;;;;;16.10;99.90;;;;;;5117372;27;20382;-64
2022/06/27 03:11:03;;;;;;;;;;;16.10;99.90;;;;;;5122173;27;19954;-64
2022/06/27 03:13:28;;;;;;;;;;;16.10;99.90;;;;;;5118720;27;20534;-64
2022/06/27 03:15:54;;;;;;;;;;;16.10;99.90;;;;;;5121317;27;20560;-64
2022/06/27 03:18:19;;;;;;;;;;;16.20;99.90;;;;;;5122089;27;19911;-64
2022/06/27 03:20:45;;;;;;;;;;;16.20;99.90;;;;;;5099402;27;19923;-64
2022/06/27 03:23:11;;;;;;;;;;;16.10;99.90;;;;;;5097880;27;19986;-64
2022/06/27 03:25:36;;;;;;;;;;;16.10;99.90;;;;;;5124601;27;19912;-64
2022/06/27 03:28:02;;;;;;;;;;;16.10;99.90;;;;;;5122611;27;19915;-64
2022/06/27 03:30:27;;;;;;;;;;;16.10;99.90;;;;;;5122982;27;19911;-64
2022/06/27 03:32:53;;;;;;;;;;;16.10;99.90;;;;;;5121215;27;19908;-64
2022/06/27 03:35:18;;;;;;;;;;;16.10;99.90;;;;;;5123249;27;20600;-64
2022/06/27 03:37:44;;;;;;;;;;;16.10;99.90;;;;;;5120999;27;19908;-64
2022/06/27 03:40:10;;;;;;;;;;;16.10;99.90;;;;;;5117689;27;19916;-64
2022/06/27 03:42:35;;;;;;;;;;;16.10;99.90;;;;;;5102762;27;20020;-64
2022/06/27 03:45:01;;;;;;;;;;;16.10;99.90;;;;;;5120696;27;20522;-64
2022/06/27 03:47:26;;;;;;;;;;;16.10;99.90;;;;;;5123170;27;20354;-64
2022/06/27 03:50:01;;;;;;;;;;;16.10;99.90;;;;;;5120824;27;19908;-64
2022/06/27 03:52:26;;;;;;;;;;;16.10;99.90;;;;;;5117517;27;19911;-65
2022/06/27 03:54:52;;;;;;;;;;;16.20;99.90;;;;;;5122690;27;19912;-64
2022/06/27 03:57:18;;;;;;;;;;;16.20;99.90;;;;;;5123857;27;20592;-64
2022/06/27 03:59:44;;;;;;;;;;;16.30;99.90;;;;;;5089285;28;19916;-64
2022/06/27 04:02:09;;;;;;;;;;;16.20;99.90;;;;;;5116230;27;20753;-64
2022/06/27 04:04:35;;;;;;;;;;;16.40;99.90;;;;;;5119325;27;19920;-64
2022/06/27 04:07:02;;;;;;;;;;;16.50;99.90;;;;;;5119215;27;19938;-64
2022/06/27 04:09:28;;;;;;;;;;;16.40;99.90;;;;;;5107494;28;19915;-64
2022/06/27 04:11:53;;;;;;;;;;;16.40;99.90;;;;;;5110654;27;19968;-64
2022/06/27 04:14:19;;;;;;;;;;;16.40;99.90;;;;;;5110037;27;19912;-64
2022/06/27 04:16:45;;;;;;;;;;;16.50;99.90;;;;;;5094240;28;19934;-64
2022/06/27 04:19:10;;;;;;;;;;;16.50;99.90;;;;;;5113767;27;19911;-64
2022/06/27 04:21:36;;;;;;;;;;;16.40;99.90;;;;;;5113946;27;19975;-64
2022/06/27 04:24:02;;;;;;;;;;;16.40;99.90;;;;;;5117248;27;19927;-64
2022/06/27 04:26:28;;;;;;;;;;;16.40;99.90;;;;;;5118493;27;19908;-64
2022/06/27 04:28:54;;;;;;;;;;;16.50;99.90;;;;;;5113649;27;19907;-64
2022/06/27 04:31:19;;;;;;;;;;;16.50;99.90;;;;;;5107903;27;19912;-65
2022/06/27 04:33:45;;;;;;;;;;;16.50;99.90;;;;;;5118436;27;19920;-65
2022/06/27 04:36:11;;;;;;;;;;;16.50;99.90;;;;;;5114061;27;19916;-65
2022/06/27 04:38:38;;;;;;;;;;;16.60;99.90;;;;;;5109658;27;19993;-65
2022/06/27 04:41:03;;;;;;;;;;;16.60;99.90;;;;;;5111001;27;20015;-65
2022/06/27 04:43:29;;;;;;;;;;;16.50;99.90;;;;;;5112950;27;20608;-65
2022/06/27 04:45:55;;;;;;;;;;;16.60;99.90;;;;;;5096027;28;19919;-64
2022/06/27 04:48:21;;;;;;;;;;;16.60;99.90;;;;;;5106442;28;20361;-65
2022/06/27 04:50:47;;;;;;;;;;;16.50;99.90;;;;;;5112172;27;19911;-65
2022/06/27 04:53:13;;;;;;;;;;;16.50;99.90;;;;;;5116829;27;19908;-64
2022/06/27 04:55:39;;;;;;;;;;;16.50;99.90;;;;;;5099266;27;20328;-64
2022/06/27 04:58:04;;;;;;;;;;;16.60;99.90;;;;;;5097968;27;19911;-64
2022/06/27 05:00:31;;;;;;;;;;;16.60;99.90;;;;;;5118507;27;20258;-64
2022/06/27 05:02:56;;;;;;;;;;;16.70;99.90;;;;;;5114364;27;19908;-64
2022/06/27 05:05:22;;;;;;;;;;;16.80;99.90;;;;;;5096244;28;19916;-64
2022/06/27 05:07:47;;;;;;;;;;;16.90;99.90;;;;;;5113804;27;19916;-64
2022/06/27 05:10:13;;;;;;;;;;;17.00;99.90;;;;;;5104277;27;20538;-65
2022/06/27 05:12:38;;;;;;;;;;;17.20;99.90;;;;;;5116289;27;19920;-65
2022/06/27 05:15:04;;;;;;;;;;;17.10;99.90;;;;;;5122117;27;19912;-65
2022/06/27 05:17:30;;;;;;;;;;;17.30;99.90;;;;;;5109183;27;20014;-65
2022/06/27 05:19:55;;;;;;;;;;;17.30;99.90;;;;;;5111676;27;19911;-65
2022/06/27 05:22:21;;;;;;;;;;;17.40;99.90;;;;;;5107793;27;20236;-65
2022/06/27 05:24:48;;;;;;;;;;;17.40;99.90;;;;;;5110702;28;19915;-64
2022/06/27 05:27:15;;;;;;;;;;;17.40;99.90;;;;;;5106455;28;19912;-64
2022/06/27 05:29:40;;;;;;;;;;;17.30;99.90;;;;;;5085194;28;20007;-64
2022/06/27 05:32:07;;;;;;;;;;;17.40;99.90;;;;;;5051761;28;20333;-65
2022/06/27 05:34:32;;;;;;;;;;;17.60;99.90;;;;;;5108383;28;19951;-65
2022/06/27 05:36:58;;;;;;;;;;;17.60;99.90;;;;;;5109560;28;19912;-65
2022/06/27 05:39:24;;;;;;;;;;;17.60;99.90;;;;;;5107197;28;20407;-65
2022/06/27 05:41:50;;;;;;;;;;;17.50;99.90;;;;;;5095894;28;19926;-65
2022/06/27 05:44:16;;;;;;;;;;;17.40;99.90;;;;;;5112290;28;19916;-65
2022/06/27 05:46:41;;;;;;;;;;;17.50;99.90;;;;;;5095212;28;20332;-64
2022/06/27 05:49:08;;;;;;;;;;;17.40;99.90;;;;;;5117141;28;19916;-64
2022/06/27 05:51:35;;;;;;;;;;;17.50;99.90;;;;;;5116867;28;20309;-64
2022/06/27 05:54:01;;;;;;;;;;;17.80;99.90;;;;;;5114958;28;19915;-64
2022/06/27 05:56:28;;;;;;;;;;;17.90;99.90;;;;;;5114469;28;20352;-64
2022/06/27 05:58:55;;;;;;;;;;;18.10;99.90;;;;;;5100221;28;20326;-64
2022/06/27 06:01:21;;;;;;;;;;;17.90;99.90;;;;;;5111545;28;19912;-64
2022/06/27 06:03:47;;;;;;;;;;;18.00;99.90;;;;;;5111505;28;20043;-64
2022/06/27 06:06:13;;;;;;;;;;;17.80;99.90;;;;;;5106504;28;19908;-64
2022/06/27 06:08:39;;;;;;;;;;;17.90;99.90;;;;;;5108844;28;19968;-64
2022/06/27 06:11:05;;;;;;;;;;;18.00;99.90;;;;;;5108501;28;20632;-64
2022/06/27 06:13:31;;;;;;;;;;;18.40;99.90;;;;;;5089565;28;20006;-64
2022/06/27 06:15:57;;;;;;;;;;;18.90;99.90;;;;;;5105320;28;20000;-64
2022/06/27 06:18:23;;;;;;;;;;;19.60;99.90;;;;;;5113228;28;19919;-64
2022/06/27 06:20:48;;;;;;;;;;;19.70;99.90;;;;;;5115847;28;19922;-65
2022/06/27 06:23:14;;;;;;;;;;;19.40;99.90;;;;;;5110823;28;19915;-64
2022/06/27 06:25:41;;;;;;;;;;;19.10;99.90;;;;;;5114787;28;20260;-64
2022/06/27 06:28:07;;;;;;;;;;;18.60;99.90;;;;;;5113589;28;19911;-64
2022/06/27 06:30:33;;;;;;;;;;;18.50;99.90;;;;;;5111458;28;20375;-64
2022/06/27 06:33:05;;;;;;;;;;;18.40;99.90;;;;;;5110660;28;19941;-64
2022/06/27 06:35:32;;;;;;;;;;;18.50;99.90;;;;;;5111364;28;19931;-64
2022/06/27 06:37:58;;;;;;;;;;;18.60;99.90;;;;;;5114728;28;19994;-64
2022/06/27 06:40:24;;;;;;;;;;;18.90;99.90;;;;;;5110599;28;19908;-64
2022/06/27 06:42:50;;;;;;;;;;;19.00;99.90;;;;;;5117610;27;19968;-64
2022/06/27 06:45:15;;;;;;;;;;;18.90;99.90;;;;;;5118889;27;19917;-64
2022/06/27 06:47:42;;;;;;;;;;;18.70;99.90;;;;;;5118729;27;20017;-65
2022/06/27 06:50:08;;;;;;;;;;;18.60;99.90;;;;;;5115616;27;19915;-65
2022/06/27 06:52:38;;;;;;;;;;;18.70;99.90;;;;;;5114534;27;20594;-65
2022/06/27 06:55:03;;;;;;;;;;;18.70;99.90;;;;;;5115368;27;19911;-64
2022/06/27 06:57:29;;;;;;;;;;;18.90;99.90;;;;;;5119941;27;19907;-64
2022/06/27 06:59:54;;;;;;;;;;;18.70;99.90;;;;;;5122738;27;19908;-64
2022/06/27 07:02:20;;;;;;;;;;;18.40;99.90;;;;;;5093125;27;19918;-64
2022/06/27 07:04:47;;;;;;;;;;;18.50;99.90;;;;;;5121635;27;20040;-65
2022/06/27 07:07:13;;;;;;;;;;;18.50;99.90;;;;;;5119433;27;19908;-65
2022/06/27 07:09:39;;;;;;;;;;;18.20;99.90;;;;;;5115674;27;19915;-64
2022/06/27 07:12:05;;;;;;;;;;;18.20;99.90;;;;;;5121059;27;19915;-64
2022/06/27 07:14:31;;;;;;;;;;;18.30;99.90;;;;;;5119367;27;19911;-64
2022/06/27 07:16:56;;;;;;;;;;;18.30;99.90;;;;;;5114513;27;19911;-64
2022/06/27 07:19:22;;;;;;;;;;;18.20;99.90;;;;;;5120970;27;19959;-64
2022/06/27 07:21:47;;;;;;;;;;;18.20;99.90;;;;;;5095067;28;20344;-65
2022/06/27 07:24:13;;;;;;;;;;;18.30;99.90;;;;;;5095537;27;20522;-64
2022/06/27 07:26:38;;;;;;;;;;;18.30;99.90;;;;;;5118955;27;19908;-64
2022/06/27 07:29:05;;;;;;;;;;;18.20;99.90;;;;;;5120762;27;20390;-64
2022/06/27 07:31:31;;;;;;;;;;;18.20;99.90;;;;;;5121241;27;19907;-64
2022/06/27 07:33:56;;;;;;;;;;;18.40;99.90;;;;;;5120534;27;19980;-64
2022/06/27 07:36:25;;;;;;;;;;;18.60;99.90;;;;;;5120329;27;19919;-64
2022/06/27 07:38:52;;;;;;;;;;;18.60;99.90;;;;;;5095387;28;19956;-64
2022/06/27 07:41:20;;;;;;;;;;;18.60;99.90;;;;;;5121342;27;20351;-64
2022/06/27 07:43:47;;;;;;;;;;;18.40;99.90;;;;;;5113506;27;19983;-64
2022/06/27 07:46:15;;;;;;;;;;;18.20;99.90;;;;;;5116683;27;19962;-64
2022/06/27 07:48:41;;;;;;;;;;;18.40;99.90;;;;;;5120619;27;19916;-64
2022/06/27 07:51:06;;;;;;;;;;;18.50;99.90;;;;;;5119417;27;19961;-64
2022/06/27 07:53:32;;;;;;;;;;;18.60;99.90;;;;;;5124584;27;19952;-64
2022/06/27 07:55:59;;;;;;;;;;;18.50;99.90;;;;;;5120342;27;20275;-64
2022/06/27 07:58:35;;;;;;;;;;;18.40;99.90;;;;;;5120611;27;20258;-64
2022/06/27 08:01:12;;;;;;;;;;;18.50;99.90;;;;;;5116612;27;19914;-64
2022/06/27 08:03:42;;;;;;;;;;;18.60;99.90;;;;;;5117790;27;19915;-65
2022/06/27 08:06:11;;;;;;;;;;;18.60;99.90;;;;;;5119286;27;19908;-65
2022/06/27 08:08:39;;;;;;;;;;;18.60;99.90;;;;;;5113679;27;19911;-65
2022/06/27 08:11:12;;;;;;;;;;;18.70;99.90;;;;;;5117171;27;19919;-65
2022/06/27 08:13:38;;;;;;;;;;;18.80;99.90;;;;;;5113650;27;19915;-64
2022/06/27 08:16:05;;;;;;;;;;;18.70;99.90;;;;;;5119218;27;19912;-65
2022/06/27 08:18:33;;;;;;;;;;;18.60;99.90;;;;;;5117050;27;19942;-64
2022/06/27 08:20:59;;;;;;;;;;;18.50;99.90;;;;;;5122124;27;19907;-64
2022/06/27 08:23:26;;;;;;;;;;;18.90;99.90;;;;;;5097665;28;20193;-64
2022/06/27 08:25:51;;;;;;;;;;;19.20;99.90;;;;;;5118040;27;19930;-64
2022/06/27 08:28:17;;;;;;;;;;;19.30;99.90;;;;;;5114027;27;19916;-64
2022/06/27 08:30:44;;;;;;;;;;;19.30;99.90;;;;;;5112919;27;20361;-64
2022/06/27 08:33:11;;;;;;;;;;;19.20;99.90;;;;;;5117982;27;19911;-64
2022/06/27 08:35:39;;;;;;;;;;;19.30;99.90;;;;;;5119443;27;19981;-64
2022/06/27 08:38:04;;;;;;;;;;;19.20;99.90;;;;;;5113466;27;19914;-64
2022/06/27 08:40:31;;;;;;;;;;;19.40;99.90;;;;;;5121416;27;19907;-64
2022/06/27 08:42:57;;;;;;;;;;;19.50;99.90;;;;;;5120856;27;20247;-64
2022/06/27 08:45:25;;;;;;;;;;;19.60;99.90;;;;;;5114772;27;20022;-64
2022/06/27 08:47:52;;;;;;;;;;;19.90;99.90;;;;;;5112924;27;19915;-64
2022/06/27 08:50:18;;;;;;;;;;;19.90;99.90;;;;;;5114754;27;19915;-64
2022/06/27 08:52:47;;;;;;;;;;;20.00;99.90;;;;;;5091097;28;20037;-64
2022/06/27 08:55:12;;;;;;;;;;;19.80;99.90;;;;;;5113549;27;19965;-64
2022/06/27 08:57:41;;;;;;;;;;;19.80;99.90;;;;;;5116276;27;19911;-64
2022/06/27 09:00:08;;;;;;;;;;;20.10;99.90;;;;;;5116510;27;19947;-64
2022/06/27 09:02:37;;;;;;;;;;;20.30;99.90;;;;;;5120685;27;20282;-64
2022/06/27 09:05:03;;;;;;;;;;;20.70;99.90;;;;;;5120528;27;19929;-64
2022/06/27 09:07:49;;;;;;;;;;;21.00;99.90;;;;;;5115064;27;19915;-64
2022/06/27 09:10:24;;;;;;;;;;;21.20;99.90;;;;;;5108429;27;19907;-64
2022/06/27 09:12:53;;;;;;;;;;;20.60;99.90;;;;;;5116604;27;19907;-64
2022/06/27 09:15:19;;;;;;;;;;;20.40;99.90;;;;;;5120421;27;20018;-64
2022/06/27 09:17:45;;;;;;;;;;;20.20;99.90;;;;;;5119504;27;20013;-64
2022/06/27 09:20:11;;;;;;;;;;;20.10;99.90;;;;;;5119249;27;19915;-64
2022/06/27 09:22:38;;;;;;;;;;;19.80;99.90;;;;;;5118484;27;19908;-64
2022/06/27 09:25:13;;;;;;;;;;;19.50;99.90;;;;;;5120546;27;19907;-65
2022/06/27 09:27:40;;;;;;;;;;;19.60;99.90;;;;;;5116535;27;19908;-64
2022/06/27 09:30:18;;;;;;;;;;;19.50;99.90;;;;;;5093230;28;20363;-64
2022/06/27 09:32:44;;;;;;;;;;;19.30;99.90;;;;;;5119135;27;19911;-64
2022/06/27 09:35:31;;;;;;;;;;;19.40;99.90;;;;;;5112252;27;19947;-64
2022/06/27 09:37:58;;;;;;;;;;;19.60;99.90;;;;;;5098997;28;19919;-64
2022/06/27 09:40:25;;;;;;;;;;;19.70;99.90;;;;;;5084445;28;19908;-64
2022/06/27 09:42:54;;;;;;;;;;;20.00;99.90;;;;;;5094631;28;19911;-64
2022/06/27 09:45:22;;;;;;;;;;;20.10;99.90;;;;;;5112398;28;19912;-64
2022/06/27 09:47:49;;;;;;;;;;;20.30;99.90;;;;;;5113132;28;19914;-64
2022/06/27 09:50:15;;;;;;;;;;;20.40;99.90;;;;;;5117060;28;19914;-64
2022/06/27 09:52:40;;;;;;;;;;;20.20;99.90;;;;;;5117000;28;19923;-64
2022/06/27 09:55:06;;;;;;;;;;;20.10;99.90;;;;;;5115141;28;20385;-64
2022/06/27 09:57:33;;;;;;;;;;;20.10;99.90;;;;;;5119061;28;19919;-64
2022/06/27 10:00:00;;;;;;;;;;;20.00;99.90;;;;;;5118953;28;19907;-64
2022/06/27 10:02:26;;;;;;;;;;;19.80;99.90;;;;;;5114123;28;19992;-64
2022/06/27 10:04:52;;;;;;;;;;;19.80;99.90;;;;;;5113326;28;19988;-65
2022/06/27 10:07:18;;;;;;;;;;;19.80;99.90;;;;;;5109630;28;19988;-65
2022/06/27 10:09:45;;;;;;;;;;;19.90;99.90;;;;;;5110218;28;19951;-65
2022/06/27 10:12:21;;;;;;;;;;;20.10;99.90;;;;;;5111682;28;20048;-65
2022/06/27 10:15:07;;;;;;;;;;;20.20;99.90;;;;;;5116451;28;19919;-65
2022/06/27 10:17:35;;;;;;;;;;;20.20;99.90;;;;;;5111710;27;19918;-65
2022/06/27 10:20:01;;;;;;;;;;;20.30;99.90;;;;;;5095494;28;19907;-65
2022/06/27 10:22:27;;;;;;;;;;;20.20;99.90;;;;;;5120294;27;19914;-65
2022/06/27 10:24:52;;;;;;;;;;;20.10;99.90;;;;;;5120170;27;19999;-65
2022/06/27 10:27:29;;;;;;;;;;;20.10;99.90;;;;;;5120133;27;19965;-65
2022/06/27 10:29:54;;;;;;;;;;;20.40;99.90;;;;;;5118664;27;19911;-65
2022/06/27 10:32:46;;;;;;;;;;;21.00;99.90;;;;;;5120522;27;20447;-65
2022/06/27 10:35:13;;;;;;;;;;;21.90;99.90;;;;;;5107422;27;20299;-65
2022/06/27 10:37:40;;;;;;;;;;;22.70;99.90;;;;;;5096270;27;19951;-65
2022/06/27 10:40:20;;;;;;;;;;;22.30;99.90;;;;;;5115792;27;19911;-65
2022/06/27 10:42:49;;;;;;;;;;;22.30;99.90;;;;;;5119344;27;20093;-66
2022/06/27 10:45:21;;;;;;;;;;;22.40;99.90;;;;;;5121744;27;19956;-65
2022/06/27 10:47:46;;;;;;;;;;;22.50;99.90;;;;;;5114158;27;20006;-65
2022/06/27 10:50:13;;;;;;;;;;;22.50;99.90;;;;;;5092154;28;20383;-65
2022/06/27 10:52:38;;;;;;;;;;;22.50;99.90;;;;;;5119288;27;19908;-65
2022/06/27 10:55:20;;;;;;;;;;;22.50;99.90;;;;;;5122144;27;20294;-65
2022/06/27 10:57:46;;;;;;;;;;;22.50;99.90;;;;;;5118640;27;19923;-66
2022/06/27 11:00:31;;;;;;;;;;;22.70;99.90;;;;;;5109502;27;19908;-65
2022/06/27 11:02:58;;;;;;;;;;;22.80;99.90;;;;;;5121311;27;20385;-66
2022/06/27 11:05:24;;;;;;;;;;;22.60;99.90;;;;;;5120706;27;19915;-66
2022/06/27 11:07:52;;;;;;;;;;;22.40;99.90;;;;;;5117079;27;20290;-65
2022/06/27 11:10:17;;;;;;;;;;;21.90;99.90;;;;;;5109160;27;19919;-65
2022/06/27 11:12:43;;;;;;;;;;;21.80;99.90;;;;;;5121075;27;20020;-65
2022/06/27 11:15:09;;;;;;;;;;;21.70;99.90;;;;;;5119723;27;19935;-65
2022/06/27 11:17:45;;;;;;;;;;;21.70;99.90;;;;;;5116938;27;19939;-65
2022/06/27 11:20:12;;;;;;;;;;;21.80;99.90;;;;;;5093522;27;19912;-65
2022/06/27 11:22:38;;;;;;;;;;;21.80;99.90;;;;;;5117239;27;19948;-65
2022/06/27 11:25:04;;;;;;;;;;;21.70;99.90;;;;;;5119174;27;20015;-65
2022/06/27 11:27:46;;;;;;;;;;;21.70;99.90;;;;;;5099807;27;19994;-65
2022/06/27 11:33:09;;;;;;;;;;;21.90;99.90;;;;;;5117072;27;19927;-65
2022/06/27 11:35:34;;;;;;;;;;;22.00;99.90;;;;;;5120505;27;19920;-65
2022/06/27 11:38:00;;;;;;;;;;;22.20;99.90;;;;;;5097440;27;20382;-65
2022/06/27 11:40:26;;;;;;;;;;;22.40;99.90;;;;;;5116345;27;20663;-65
2022/06/27 11:42:52;;;;;;;;;;;22.20;99.90;;;;;;5121414;27;20390;-65
2022/06/27 11:45:17;;;;;;;;;;;22.30;99.90;;;;;;5113906;27;20316;-65
2022/06/27 11:47:44;;;;;;;;;;;22.30;99.90;;;;;;5095575;27;19907;-65
2022/06/27 11:50:15;;;;;;;;;;;22.40;99.90;;;;;;5119058;27;19980;-65
2022/06/27 11:52:42;;;;;;;;;;;22.10;99.90;;;;;;5122317;27;19984;-65
2022/06/27 11:55:11;;;;;;;;;;;21.80;99.90;;;;;;5115667;27;20010;-65
2022/06/27 11:57:37;;;;;;;;;;;21.70;99.90;;;;;;5116364;27;19929;-65
2022/06/27 12:00:04;;;;;;;;;;;21.50;99.90;;;;;;5120542;27;20378;-65
2022/06/27 12:02:37;;;;;;;;;;;21.60;99.90;;;;;;5118164;27;20036;-65
2022/06/27 12:05:02;;;;;;;;;;;21.40;99.90;;;;;;5098568;27;20002;-65
2022/06/27 12:07:27;;;;;;;;;;;21.60;99.90;;;;;;5098002;27;20037;-65
2022/06/27 12:09:53;;;;;;;;;;;21.60;99.90;;;;;;5113426;27;19907;-65
2022/06/27 12:12:20;;;;;;;;;;;21.50;99.90;;;;;;5112703;27;20405;-65
2022/06/27 12:14:46;;;;;;;;;;;21.80;99.90;;;;;;5117302;27;19911;-65
2022/06/27 12:17:12;;;;;;;;;;;21.90;99.90;;;;;;5120372;27;19908;-65
2022/06/27 12:19:40;;;;;;;;;;;21.80;99.90;;;;;;5118026;27;19914;-65
2022/06/27 12:22:06;;;;;;;;;;;22.00;99.90;;;;;;5119053;27;20417;-65
2022/06/27 12:24:32;;;;;;;;;;;22.10;99.90;;;;;;5094199;28;19908;-65
2022/06/27 12:26:57;;;;;;;;;;;22.10;99.90;;;;;;5094716;28;19914;-65
2022/06/27 12:29:23;;;;;;;;;;;22.00;99.90;;;;;;5115391;27;20366;-65
2022/06/27 12:31:48;;;;;;;;;;;22.10;99.90;;;;;;5119377;27;19962;-65
2022/06/27 12:34:14;;;;;;;;;;;22.20;99.90;;;;;;5120183;27;20271;-65
2022/06/27 12:36:40;;;;;;;;;;;22.30;99.90;;;;;;5118270;27;20006;-65
2022/06/27 12:39:06;;;;;;;;;;;22.20;99.90;;;;;;5098725;28;19947;-65
2022/06/27 12:41:32;;;;;;;;;;;22.20;99.90;;;;;;5115638;27;19953;-66
2022/06/27 12:43:57;;;;;;;;;;;22.00;99.90;;;;;;5117250;27;19908;-65
2022/06/27 12:46:24;;;;;;;;;;;22.10;99.90;;;;;;5119008;27;19914;-65
2022/06/27 12:48:50;;;;;;;;;;;22.20;99.90;;;;;;5119901;27;20364;-65
2022/06/27 12:51:16;;;;;;;;;;;22.20;99.90;;;;;;5116223;27;19934;-65
2022/06/27 12:53:42;;;;;;;;;;;22.60;99.90;;;;;;5094093;27;19924;-67
2022/06/27 12:56:07;;;;;;;;;;;22.80;99.90;;;;;;5119247;27;19923;-65
2022/06/27 12:58:33;;;;;;;;;;;23.10;99.90;;;;;;5118942;27;20374;-65
2022/06/27 13:00:59;;;;;;;;;;;23.30;99.90;;;;;;5114032;27;20294;-65
2022/06/27 13:03:25;;;;;;;;;;;23.90;99.90;;;;;;5117774;27;19922;-65
2022/06/27 13:05:50;;;;;;;;;;;24.10;99.90;;;;;;5114913;27;19912;-65
2022/06/27 13:08:16;;;;;;;;;;;24.40;99.90;;;;;;5114088;27;20088;-65
2022/06/27 13:10:42;;;;;;;;;;;24.60;99.90;;;;;;5111712;27;20369;-65
2022/06/27 13:13:08;;;;;;;;;;;24.80;99.90;;;;;;5113933;27;19908;-65
2022/06/27 13:15:34;;;;;;;;;;;24.70;99.90;;;;;;5118059;27;20073;-65
2022/06/27 13:18:00;;;;;;;;;;;24.30;99.90;;;;;;5119311;27;19907;-65
2022/06/27 13:20:26;;;;;;;;;;;24.20;99.90;;;;;;5113240;27;20393;-65
2022/06/27 13:22:52;;;;;;;;;;;23.90;99.90;;;;;;5115835;27;20002;-65
2022/06/27 13:25:18;;;;;;;;;;;24.10;99.90;;;;;;5118629;27;19990;-66
2022/06/27 13:27:44;;;;;;;;;;;24.20;99.90;;;;;;5096130;28;19907;-65
2022/06/27 13:30:10;;;;;;;;;;;23.60;99.90;;;;;;5113949;27;20231;-65
2022/06/27 13:32:36;;;;;;;;;;;22.90;99.90;;;;;;5097550;28;19926;-65
2022/06/27 13:35:01;;;;;;;;;;;22.60;99.90;;;;;;5093258;28;20245;-65
2022/06/27 13:37:27;;;;;;;;;;;22.40;99.90;;;;;;5110632;27;19930;-65
2022/06/27 13:39:52;;;;;;;;;;;22.30;99.90;;;;;;5091905;28;19934;-65
2022/06/27 13:42:18;;;;;;;;;;;22.10;99.90;;;;;;5111375;28;19959;-65
2022/06/27 13:44:44;;;;;;;;;;;21.90;99.90;;;;;;5094774;28;20284;-65
2022/06/27 13:47:09;;;;;;;;;;;21.90;99.90;;;;;;5119055;28;19915;-65
2022/06/27 13:49:35;;;;;;;;;;;22.10;99.90;;;;;;5097706;28;19999;-65
2022/06/27 13:52:01;;;;;;;;;;;22.40;99.90;;;;;;5117241;27;19937;-65
2022/06/27 13:54:26;;;;;;;;;;;23.10;99.90;;;;;;5115553;27;20010;-65
2022/06/27 13:56:52;;;;;;;;;;;23.70;99.90;;;;;;5120786;27;20437;-65
2022/06/27 13:59:17;;;;;;;;;;;23.80;99.90;;;;;;5123012;27;19980;-65
2022/06/27 14:01:43;;;;;;;;;;;23.80;99.90;;;;;;5118793;27;19912;-65
2022/06/27 14:04:09;;;;;;;;;;;24.00;99.90;;;;;;5121808;27;19926;-65
2022/06/27 14:09:19;;;;;;;;;;;23.50;99.90;;;;;;5114273;27;20322;-65
2022/06/27 14:11:45;;;;;;;;;;;23.40;99.90;;;;;;5116889;27;20255;-65
2022/06/27 14:14:10;;;;;;;;;;;23.50;99.90;;;;;;5116494;27;19912;-65
2022/06/27 14:16:36;;;;;;;;;;;23.50;99.90;;;;;;5088869;28;19916;-65
2022/06/27 14:19:01;;;;;;;;;;;23.60;99.90;;;;;;5109903;27;20022;-65